createdAt,value
2019-04-11T00:00:01.292Z,799.28
2019-04-11T00:00:07.685Z,799.25
2019-04-11T00:00:13.988Z,799.28
2019-04-11T00:00:21.468Z,799.22
2019-04-11T00:00:27.714Z,799.22
2019-04-11T00:00:34.021Z,799.21
2019-04-11T00:00:39.573Z,799.2
2019-04-11T00:00:50.446Z,799.21
2019-04-11T00:00:57.622Z,799.17
2019-04-11T00:01:04.613Z,799.2
2019-04-11T00:01:12.830Z,799.18
2019-04-11T00:01:19.669Z,799.15
2019-04-11T00:01:54.458Z,799.15
2019-04-11T00:02:02.535Z,799.14
2019-04-11T00:02:08.814Z,799.1
2019-04-11T00:02:16.320Z,799.11
2019-04-11T00:02:22.569Z,799.1
2019-04-11T00:02:30.908Z,799.09
2019-04-11T00:02:37.193Z,799.06
2019-04-11T00:02:42.825Z,799.08
2019-04-11T00:02:49.016Z,799.08
2019-04-11T00:02:55.256Z,799.08
2019-04-11T00:03:01.572Z,799.05
2019-04-11T00:03:09.180Z,799.02
2019-04-11T00:03:16.163Z,799.01
2019-04-11T00:03:22.479Z,799.02
2019-04-11T00:03:29.214Z,799.01
2019-04-11T00:03:35.511Z,799.02
2019-04-11T00:03:41.744Z,799.02
2019-04-11T00:03:47.976Z,799.03
2019-04-11T00:03:55.025Z,799.02
2019-04-11T00:04:02.616Z,799
2019-04-11T00:04:10.136Z,799.01
2019-04-11T00:04:17.683Z,799.03
2019-04-11T00:04:24.128Z,798.98
2019-04-11T00:04:32.129Z,798.95
2019-04-11T00:04:38.638Z,798.96
2019-04-11T00:04:44.962Z,798.98
2019-04-11T00:04:54.368Z,798.95
2019-04-11T00:05:00.332Z,798.93
2019-04-11T00:05:08.132Z,798.92
2019-04-11T00:05:14.759Z,798.95
2019-04-11T00:05:21.004Z,798.93
2019-04-11T00:05:26.523Z,798.92
2019-04-11T00:05:32.205Z,798.91
2019-04-11T00:05:39.084Z,798.91
2019-04-11T00:05:47.342Z,798.9
2019-04-11T00:05:52.859Z,798.9
2019-04-11T00:05:57.898Z,798.89
2019-04-11T00:06:07.432Z,798.92
2019-04-11T00:06:14.779Z,798.89
2019-04-11T00:06:21.389Z,798.85
2019-04-11T00:06:29.630Z,798.86
2019-04-11T00:06:35.889Z,798.84
2019-04-11T00:06:41.417Z,798.83
2019-04-11T00:06:46.445Z,798.84
2019-04-11T00:06:54.740Z,798.8
2019-04-11T00:07:01.755Z,798.81
2019-04-11T00:07:09.301Z,798.74
2019-04-11T00:07:16.011Z,798.8
2019-04-11T00:07:23.204Z,798.78
2019-04-11T00:07:30.115Z,798.79
2019-04-11T00:07:36.337Z,798.78
2019-04-11T00:07:43.331Z,798.73
2019-04-11T00:07:49.621Z,798.76
2019-04-11T00:07:57.157Z,798.72
2019-04-11T00:08:07.889Z,798.68
2019-04-11T00:08:17.487Z,798.7
2019-04-11T00:08:23.220Z,798.72
2019-04-11T00:08:30.793Z,798.69
2019-04-11T00:08:39.951Z,798.69
2019-04-11T00:08:47.410Z,798.7
2019-04-11T00:08:55.089Z,798.66
2019-04-11T00:09:03.387Z,798.63
2019-04-11T00:09:10.214Z,798.61
2019-04-11T00:09:16.351Z,798.68
2019-04-11T00:09:23.501Z,798.65
2019-04-11T00:09:32.489Z,798.66
2019-04-11T00:09:38.750Z,798.59
2019-04-11T00:09:45.741Z,798.56
2019-04-11T00:09:54.565Z,798.53
2019-04-11T00:10:01.008Z,798.58
2019-04-11T00:10:08.268Z,798.54
2019-04-11T00:10:15.245Z,798.57
2019-04-11T00:10:20.753Z,798.6
2019-04-11T00:10:26.971Z,798.56
2019-04-11T00:10:35.335Z,798.5
2019-04-11T00:10:43.116Z,798.5
2019-04-11T00:10:50.175Z,798.55
2019-04-11T00:10:57.523Z,798.55
2019-04-11T00:11:03.772Z,798.55
2019-04-11T00:11:11.443Z,798.49
2019-04-11T00:11:17.689Z,798.5
2019-04-11T00:11:26.760Z,798.49
2019-04-11T00:11:34.330Z,798.49
2019-04-11T00:11:40.656Z,798.46
2019-04-11T00:11:48.254Z,798.43
2019-04-11T00:11:55.225Z,798.46
2019-04-11T00:12:02.475Z,798.47
2019-04-11T00:12:08.366Z,798.46
2019-04-11T00:12:15.305Z,798.43
2019-04-11T00:12:22.087Z,798.41
2019-04-11T00:12:28.454Z,798.43
2019-04-11T00:12:34.632Z,798.41
2019-04-11T00:12:40.921Z,798.4
2019-04-11T00:12:46.387Z,798.39
2019-04-11T00:12:52.083Z,798.41
2019-04-11T00:12:58.951Z,798.41
2019-04-11T00:13:35.090Z,798.37
2019-04-11T00:13:43.158Z,798.36
2019-04-11T00:13:49.486Z,798.38
2019-04-11T00:13:57.779Z,798.34
2019-04-11T00:14:05.298Z,798.34
2019-04-11T00:14:11.547Z,798.35
2019-04-11T00:14:20.657Z,798.32
2019-04-11T00:14:29.549Z,798.33
2019-04-11T00:14:35.857Z,798.32
2019-04-11T00:14:44.163Z,798.31
2019-04-11T00:14:52.433Z,798.28
2019-04-11T00:14:58.863Z,798.28
2019-04-11T00:15:06.385Z,798.29
2019-04-11T00:15:13.530Z,798.27
2019-04-11T00:15:20.292Z,798.27
2019-04-11T00:15:25.294Z,798.26
2019-04-11T00:15:32.800Z,798.26
2019-04-11T00:15:38.573Z,798.25
2019-04-11T00:15:45.953Z,798.24
2019-04-11T00:15:51.901Z,798.23
2019-04-11T00:15:59.930Z,798.23
2019-04-11T00:16:06.867Z,798.22
2019-04-11T00:16:13.067Z,798.25
2019-04-11T00:16:22.120Z,798.16
2019-04-11T00:16:29.703Z,798.17
2019-04-11T00:16:35.576Z,798.17
2019-04-11T00:16:43.524Z,798.16
2019-04-11T00:16:49.837Z,798.16
2019-04-11T00:16:57.343Z,798.17
2019-04-11T00:17:03.660Z,798.18
2019-04-11T00:17:11.879Z,798.18
2019-04-11T00:17:17.486Z,798.11
2019-04-11T00:17:23.109Z,798.14
2019-04-11T00:17:29.964Z,798.08
2019-04-11T00:17:36.276Z,798.12
2019-04-11T00:17:41.807Z,798.09
2019-04-11T00:17:47.499Z,798.09
2019-04-11T00:17:54.105Z,798.13
2019-04-11T00:18:02.703Z,798.11
2019-04-11T00:18:10.222Z,798.13
2019-04-11T00:18:15.129Z,798.09
2019-04-11T00:18:22.831Z,798.1
2019-04-11T00:18:30.096Z,798.11
2019-04-11T00:18:36.042Z,798.08
2019-04-11T00:18:42.888Z,798.07
2019-04-11T00:18:49.930Z,798.1
2019-04-11T00:18:56.903Z,798.09
2019-04-11T00:19:03.104Z,798.06
2019-04-11T00:19:12.102Z,798.08
2019-04-11T00:19:21.071Z,798.04
2019-04-11T00:19:29.391Z,798.06
2019-04-11T00:19:37.665Z,798.02
2019-04-11T00:19:43.992Z,798.03
2019-04-11T00:19:51.376Z,798.05
2019-04-11T00:19:57.892Z,798.02
2019-04-11T00:20:05.714Z,798.02
2019-04-11T00:20:13.496Z,797.97
2019-04-11T00:20:20.631Z,797.96
2019-04-11T00:20:29.200Z,797.98
2019-04-11T00:20:36.043Z,797.96
2019-04-11T00:20:42.289Z,797.97
2019-04-11T00:20:49.271Z,797.98
2019-04-11T00:20:56.063Z,797.95
2019-04-11T00:21:02.470Z,797.97
2019-04-11T00:21:10.522Z,797.94
2019-04-11T00:21:16.955Z,797.95
2019-04-11T00:21:22.454Z,797.95
2019-04-11T00:21:28.744Z,797.92
2019-04-11T00:21:35.768Z,797.92
2019-04-11T00:21:44.606Z,797.92
2019-04-11T00:21:50.310Z,797.92
2019-04-11T00:21:57.203Z,797.88
2019-04-11T00:22:05.659Z,797.9
2019-04-11T00:22:13.095Z,797.87
2019-04-11T00:22:19.250Z,797.86
2019-04-11T00:22:25.663Z,797.89
2019-04-11T00:22:31.389Z,797.86
2019-04-11T00:22:38.197Z,797.83
2019-04-11T00:22:43.711Z,797.87
2019-04-11T00:22:49.908Z,797.85
2019-04-11T00:22:59.639Z,797.85
2019-04-11T00:23:06.012Z,797.84
2019-04-11T00:23:14.935Z,797.8
2019-04-11T00:23:21.593Z,797.77
2019-04-11T00:23:27.729Z,797.82
2019-04-11T00:23:35.108Z,797.82
2019-04-11T00:23:42.612Z,797.82
2019-04-11T00:23:50.185Z,797.8
2019-04-11T00:23:56.527Z,797.79
2019-04-11T00:24:03.521Z,797.78
2019-04-11T00:24:11.396Z,797.78
2019-04-11T00:24:17.397Z,797.76
2019-04-11T00:24:23.680Z,797.69
2019-04-11T00:24:32.159Z,797.74
2019-04-11T00:24:39.496Z,797.78
2019-04-11T00:24:45.163Z,797.75
2019-04-11T00:24:51.972Z,797.72
2019-04-11T00:24:58.622Z,797.73
2019-04-11T00:25:05.519Z,797.73
2019-04-11T00:25:13.563Z,797.73
2019-04-11T00:25:20.612Z,797.74
2019-04-11T00:25:27.459Z,797.69
2019-04-11T00:25:33.674Z,797.7
2019-04-11T00:25:41.959Z,797.69
2019-04-11T00:25:47.470Z,797.7
2019-04-11T00:25:53.178Z,797.67
2019-04-11T00:26:00.042Z,797.67
2019-04-11T00:26:09.187Z,797.69
2019-04-11T00:26:15.968Z,797.66
2019-04-11T00:26:22.186Z,797.66
2019-04-11T00:26:30.472Z,797.63
2019-04-11T00:26:38.107Z,797.64
2019-04-11T00:26:44.419Z,797.62
2019-04-11T00:26:52.694Z,797.62
2019-04-11T00:27:00.281Z,797.63
2019-04-11T00:27:06.725Z,797.62
2019-04-11T00:27:12.935Z,797.61
2019-04-11T00:27:21.194Z,797.62
2019-04-11T00:27:28.747Z,797.59
2019-04-11T00:27:33.735Z,797.54
2019-04-11T00:27:41.331Z,797.61
2019-04-11T00:27:48.851Z,797.61
2019-04-11T00:27:54.525Z,797.58
2019-04-11T00:28:01.554Z,797.6
2019-04-11T00:28:10.287Z,797.58
2019-04-11T00:28:17.309Z,797.6
2019-04-11T00:28:23.627Z,797.55
2019-04-11T00:28:31.892Z,797.56
2019-04-11T00:28:38.223Z,797.56
2019-04-11T00:28:44.195Z,797.54
2019-04-11T00:28:52.804Z,797.52
2019-04-11T00:28:59.835Z,797.53
2019-04-11T00:29:07.414Z,797.54
2019-04-11T00:29:14.340Z,797.54
2019-04-11T00:29:22.533Z,797.53
2019-04-11T00:29:30.195Z,797.49
2019-04-11T00:29:36.560Z,797.47
2019-04-11T00:29:44.835Z,797.41
2019-04-11T00:29:49.944Z,797.42
2019-04-11T00:29:56.981Z,797.51
2019-04-11T00:30:03.857Z,797.49
2019-04-11T00:30:10.857Z,797.47
2019-04-11T00:30:17.802Z,797.47
2019-04-11T00:30:24.007Z,797.44
2019-04-11T00:30:32.054Z,797.47
2019-04-11T00:30:38.064Z,797.46
2019-04-11T00:30:46.270Z,797.44
2019-04-11T00:30:53.262Z,797.43
2019-04-11T00:31:01.619Z,797.4
2019-04-11T00:31:09.478Z,797.42
2019-04-11T00:31:16.713Z,797.42
2019-04-11T00:31:23.725Z,797.39
2019-04-11T00:31:30.629Z,797.38
2019-04-11T00:31:36.871Z,797.4
2019-04-11T00:31:43.862Z,797.4
2019-04-11T00:31:52.734Z,797.36
2019-04-11T00:31:59.099Z,797.42
2019-04-11T00:32:13.659Z,797.36
2019-04-11T00:32:21.156Z,797.37
2019-04-11T00:32:26.210Z,797.37
2019-04-11T00:32:32.448Z,797.37
2019-04-11T00:32:39.405Z,797.34
2019-04-11T00:32:47.230Z,797.4
2019-04-11T00:32:54.632Z,797.37
2019-04-11T00:33:02.201Z,797.36
2019-04-11T00:33:09.722Z,797.33
2019-04-11T00:33:14.771Z,797.35
2019-04-11T00:33:23.102Z,797.34
2019-04-11T00:33:30.597Z,797.31
2019-04-11T00:33:36.921Z,797.35
2019-04-11T00:33:44.543Z,797.33
2019-04-11T00:33:51.563Z,797.33
2019-04-11T00:33:59.461Z,797.27
2019-04-11T00:34:06.712Z,797.31
2019-04-11T00:34:15.826Z,797.3
2019-04-11T00:34:23.384Z,797.3
2019-04-11T00:34:29.001Z,797.27
2019-04-11T00:34:37.226Z,797.24
2019-04-11T00:34:43.548Z,797.26
2019-04-11T00:34:51.081Z,797.26
2019-04-11T00:34:59.367Z,797.24
2019-04-11T00:35:07.035Z,797.22
2019-04-11T00:35:14.143Z,797.23
2019-04-11T00:35:21.669Z,797.21
2019-04-11T00:35:28.739Z,797.21
2019-04-11T00:35:36.296Z,797.19
2019-04-11T00:35:43.667Z,797.17
2019-04-11T00:35:51.970Z,797.18
2019-04-11T00:35:57.775Z,797.2
2019-04-11T00:36:02.700Z,797.18
2019-04-11T00:36:12.339Z,797.22
2019-04-11T00:36:18.095Z,797.18
2019-04-11T00:36:25.664Z,797.18
2019-04-11T00:36:32.550Z,797.17
2019-04-11T00:36:39.527Z,797.21
2019-04-11T00:36:46.329Z,797.19
2019-04-11T00:36:52.474Z,797.14
2019-04-11T00:36:59.670Z,797.14
2019-04-11T00:37:06.287Z,797.17
2019-04-11T00:37:14.190Z,797.13
2019-04-11T00:37:21.019Z,797.13
2019-04-11T00:37:29.103Z,797.14
2019-04-11T00:37:34.882Z,797.08
2019-04-11T00:37:39.955Z,797.08
2019-04-11T00:37:47.451Z,797.12
2019-04-11T00:37:53.685Z,797.12
2019-04-11T00:38:01.283Z,797.1
2019-04-11T00:38:07.707Z,797.04
2019-04-11T00:38:15.977Z,797.09
2019-04-11T00:38:22.242Z,797.05
2019-04-11T00:38:27.896Z,797.07
2019-04-11T00:38:36.046Z,797.05
2019-04-11T00:38:43.127Z,797.06
2019-04-11T00:38:49.920Z,797.08
2019-04-11T00:38:55.155Z,797.06
2019-04-11T00:39:03.419Z,797.05
2019-04-11T00:39:09.070Z,797.04
2019-04-11T00:39:16.698Z,797.04
2019-04-11T00:39:23.550Z,797.01
2019-04-11T00:39:31.915Z,797.05
2019-04-11T00:39:39.514Z,797.05
2019-04-11T00:39:45.814Z,797.02
2019-04-11T00:39:52.576Z,797.03
2019-04-11T00:39:59.644Z,796.98
2019-04-11T00:40:06.068Z,797
2019-04-11T00:40:13.065Z,796.97
2019-04-11T00:40:21.522Z,796.98
2019-04-11T00:40:28.962Z,796.98
2019-04-11T00:40:35.346Z,796.94
2019-04-11T00:40:45.614Z,796.96
2019-04-11T00:40:53.218Z,796.97
2019-04-11T00:40:59.612Z,796.96
2019-04-11T00:41:07.862Z,796.97
2019-04-11T00:41:14.132Z,796.98
2019-04-11T00:41:19.795Z,796.96
2019-04-11T00:41:26.696Z,796.95
2019-04-11T00:41:35.703Z,796.95
2019-04-11T00:41:42.937Z,796.94
2019-04-11T00:41:50.193Z,796.92
2019-04-11T00:41:58.515Z,796.91
2019-04-11T00:42:06.088Z,796.95
2019-04-11T00:42:11.034Z,796.92
2019-04-11T00:42:18.684Z,796.93
2019-04-11T00:42:26.021Z,796.91
2019-04-11T00:42:31.940Z,796.94
2019-04-11T00:42:38.728Z,796.93
2019-04-11T00:42:47.049Z,796.9
2019-04-11T00:42:52.612Z,796.9
2019-04-11T00:42:58.871Z,796.86
2019-04-11T00:43:05.917Z,796.9
2019-04-11T00:43:15.831Z,796.89
2019-04-11T00:43:47.612Z,796.87
2019-04-11T00:43:54.537Z,796.86
2019-04-11T00:44:02.814Z,796.83
2019-04-11T00:44:08.356Z,796.86
2019-04-11T00:44:13.407Z,796.84
2019-04-11T00:44:20.898Z,796.82
2019-04-11T00:44:27.177Z,796.84
2019-04-11T00:44:34.674Z,796.82
2019-04-11T00:44:39.751Z,796.83
2019-04-11T00:44:48.112Z,796.82
2019-04-11T00:44:55.616Z,796.81
2019-04-11T00:45:03.322Z,796.77
2019-04-11T00:45:11.612Z,796.83
2019-04-11T00:45:19.109Z,796.8
2019-04-11T00:45:24.846Z,796.85
2019-04-11T00:45:31.710Z,796.82
2019-04-11T00:45:40.003Z,796.81
2019-04-11T00:45:47.489Z,796.8
2019-04-11T00:45:52.673Z,796.79
2019-04-11T00:46:01.741Z,796.73
2019-04-11T00:46:09.898Z,796.82
2019-04-11T00:46:14.881Z,796.73
2019-04-11T00:46:22.432Z,796.76
2019-04-11T00:46:29.466Z,796.82
2019-04-11T00:46:36.995Z,796.78
2019-04-11T00:46:42.594Z,796.83
2019-04-11T00:46:50.807Z,796.77
2019-04-11T00:46:57.076Z,796.77
2019-04-11T00:47:03.458Z,796.75
2019-04-11T00:47:10.984Z,796.75
2019-04-11T00:47:17.953Z,796.76
2019-04-11T00:47:24.810Z,796.74
2019-04-11T00:47:30.973Z,796.69
2019-04-11T00:47:38.125Z,796.72
2019-04-11T00:47:46.939Z,796.73
2019-04-11T00:47:51.963Z,796.71
2019-04-11T00:47:59.514Z,796.73
2019-04-11T00:48:07.171Z,796.72
2019-04-11T00:48:14.529Z,796.74
2019-04-11T00:48:21.685Z,796.7
2019-04-11T00:48:29.982Z,796.65
2019-04-11T00:48:35.580Z,796.69
2019-04-11T00:48:42.641Z,796.69
2019-04-11T00:48:52.877Z,796.71
2019-04-11T00:48:59.803Z,796.68
2019-04-11T00:49:06.189Z,796.71
2019-04-11T00:49:14.304Z,796.64
2019-04-11T00:49:20.224Z,796.63
2019-04-11T00:49:27.653Z,796.63
2019-04-11T00:49:34.573Z,796.62
2019-04-11T00:49:40.810Z,796.66
2019-04-11T00:49:48.416Z,796.65
2019-04-11T00:49:53.442Z,796.64
2019-04-11T00:50:00.985Z,796.65
2019-04-11T00:50:10.598Z,796.64
2019-04-11T00:50:16.358Z,796.62
2019-04-11T00:50:23.182Z,796.63
2019-04-11T00:50:31.600Z,796.64
2019-04-11T00:50:39.083Z,796.63
2019-04-11T00:50:44.129Z,796.62
2019-04-11T00:50:51.701Z,796.62
2019-04-11T00:50:59.246Z,796.58
2019-04-11T00:51:06.030Z,796.65
2019-04-11T00:51:16.110Z,796.63
2019-04-11T00:51:23.545Z,796.64
2019-04-11T00:51:29.834Z,796.65
2019-04-11T00:51:38.059Z,796.65
2019-04-11T00:51:44.378Z,796.61
2019-04-11T00:51:51.658Z,796.61
2019-04-11T00:51:58.169Z,796.64
2019-04-11T00:52:06.362Z,796.62
2019-04-11T00:52:12.842Z,796.64
2019-04-11T00:52:19.201Z,796.63
2019-04-11T00:52:27.212Z,796.62
2019-04-11T00:52:33.618Z,796.63
2019-04-11T00:52:39.858Z,796.54
2019-04-11T00:52:46.231Z,796.57
2019-04-11T00:52:52.459Z,796.64
2019-04-11T00:52:58.812Z,796.58
2019-04-11T00:53:06.950Z,796.62
2019-04-11T00:53:13.861Z,796.59
2019-04-11T00:53:22.248Z,796.62
2019-04-11T00:53:29.778Z,796.59
2019-04-11T00:53:36.082Z,796.57
2019-04-11T00:53:44.391Z,796.6
2019-04-11T00:53:49.958Z,796.59
2019-04-11T00:53:55.636Z,796.61
2019-04-11T00:54:02.486Z,796.6
2019-04-11T00:54:10.769Z,796.6
2019-04-11T00:54:16.419Z,796.61
2019-04-11T00:54:22.643Z,796.63
2019-04-11T00:54:30.947Z,796.6
2019-04-11T00:54:38.505Z,796.61
2019-04-11T00:54:44.911Z,796.61
2019-04-11T00:54:51.911Z,796.61
2019-04-11T00:54:59.469Z,796.61
2019-04-11T00:55:08.133Z,796.6
2019-04-11T00:55:15.336Z,796.63
2019-04-11T00:55:22.433Z,796.6
2019-04-11T00:55:29.327Z,796.58
2019-04-11T00:55:35.602Z,796.6
2019-04-11T00:55:43.895Z,796.58
2019-04-11T00:55:51.428Z,796.54
2019-04-11T00:55:57.842Z,796.56
2019-04-11T00:56:06.109Z,796.59
2019-04-11T00:56:15.557Z,796.59
2019-04-11T00:56:21.436Z,796.57
2019-04-11T00:56:28.247Z,796.6
2019-04-11T00:56:35.298Z,796.54
2019-04-11T00:56:42.242Z,796.54
2019-04-11T00:56:48.429Z,796.61
2019-04-11T00:56:56.671Z,796.57
2019-04-11T00:57:02.389Z,796.58
2019-04-11T00:57:09.930Z,796.57
2019-04-11T00:57:16.666Z,796.58
2019-04-11T00:57:23.041Z,796.57
2019-04-11T00:57:29.292Z,796.59
2019-04-11T00:57:34.906Z,796.59
2019-04-11T00:57:43.151Z,796.58
2019-04-11T00:57:49.459Z,796.59
2019-04-11T00:57:56.995Z,796.56
2019-04-11T00:58:03.417Z,796.56
2019-04-11T00:58:11.419Z,796.6
2019-04-11T00:58:17.892Z,796.57
2019-04-11T00:58:23.520Z,796.61
2019-04-11T00:58:31.792Z,796.63
2019-04-11T00:58:38.682Z,796.64
2019-04-11T00:58:44.346Z,796.62
2019-04-11T00:58:51.777Z,796.59
2019-04-11T00:58:58.271Z,796.66
2019-04-11T00:59:05.806Z,796.65
2019-04-11T00:59:12.762Z,796.66
2019-04-11T00:59:19.092Z,796.68
2019-04-11T00:59:26.584Z,796.69
2019-04-11T00:59:34.121Z,796.69
2019-04-11T00:59:39.488Z,796.74
2019-04-11T00:59:48.756Z,796.72
2019-04-11T00:59:55.080Z,796.75
2019-04-11T01:00:01.411Z,796.77
2019-04-11T01:00:11.018Z,796.76
2019-04-11T01:00:16.683Z,796.76
2019-04-11T01:00:24.300Z,796.74
2019-04-11T01:00:31.260Z,796.73
2019-04-11T01:00:40.856Z,796.74
2019-04-11T01:00:48.169Z,796.77
2019-04-11T01:00:55.252Z,796.76
2019-04-11T01:01:02.481Z,796.83
2019-04-11T01:01:08.004Z,796.84
2019-04-11T01:01:14.290Z,796.87
2019-04-11T01:01:22.599Z,796.91
2019-04-11T01:01:29.652Z,796.9
2019-04-11T01:01:37.847Z,796.94
2019-04-11T01:01:44.943Z,796.96
2019-04-11T01:01:53.307Z,796.97
2019-04-11T01:01:59.644Z,796.98
2019-04-11T01:02:05.858Z,797.02
2019-04-11T01:02:15.504Z,797.02
2019-04-11T01:02:21.847Z,797.04
2019-04-11T01:02:28.051Z,797.05
2019-04-11T01:02:34.345Z,797.1
2019-04-11T01:02:47.368Z,797.11
2019-04-11T01:02:52.347Z,797.1
2019-04-11T01:02:59.979Z,797.16
2019-04-11T01:03:09.672Z,797.14
2019-04-11T01:03:16.002Z,797.16
2019-04-11T01:03:22.880Z,797.21
2019-04-11T01:03:31.197Z,797.24
2019-04-11T01:03:38.807Z,797.25
2019-04-11T01:03:45.319Z,797.28
2019-04-11T01:03:53.667Z,797.29
2019-04-11T01:04:01.313Z,797.32
2019-04-11T01:04:09.571Z,797.34
2019-04-11T01:04:15.810Z,797.34
2019-04-11T01:04:23.379Z,797.38
2019-04-11T01:04:29.117Z,797.39
2019-04-11T01:04:34.929Z,797.4
2019-04-11T01:04:43.166Z,797.45
2019-04-11T01:04:50.758Z,797.44
2019-04-11T01:04:55.799Z,797.42
2019-04-11T01:05:05.365Z,797.5
2019-04-11T01:05:11.572Z,797.54
2019-04-11T01:05:19.268Z,797.53
2019-04-11T01:05:27.565Z,797.56
2019-04-11T01:05:34.674Z,797.59
2019-04-11T01:05:42.600Z,797.65
2019-04-11T01:05:49.898Z,797.62
2019-04-11T01:05:58.254Z,797.67
2019-04-11T01:06:04.405Z,797.7
2019-04-11T01:06:11.070Z,797.7
2019-04-11T01:06:18.261Z,797.71
2019-04-11T01:06:23.856Z,797.71
2019-04-11T01:06:30.072Z,797.72
2019-04-11T01:06:36.486Z,797.78
2019-04-11T01:06:43.333Z,797.79
2019-04-11T01:06:50.087Z,797.86
2019-04-11T01:06:55.847Z,797.79
2019-04-11T01:07:02.653Z,797.82
2019-04-11T01:07:08.891Z,797.89
2019-04-11T01:07:14.469Z,797.89
2019-04-11T01:07:20.717Z,797.9
2019-04-11T01:07:27.641Z,797.93
2019-04-11T01:07:33.881Z,797.97
2019-04-11T01:07:40.877Z,797.95
2019-04-11T05:00:25.281Z,794.97
2019-04-11T05:00:39.624Z,794.95
2019-04-11T05:00:51.894Z,794.98
2019-04-11T05:01:08.024Z,794.98
2019-04-11T05:01:24.276Z,794.91
2019-04-11T05:01:35.028Z,794.93
2019-04-11T05:01:50.724Z,795
2019-04-11T05:02:03.907Z,794.95
2019-04-11T05:02:20.467Z,795
2019-04-11T05:02:32.632Z,795.03
2019-04-11T05:02:45.626Z,795.05
2019-04-11T05:02:59.776Z,795.02
2019-04-11T05:03:13.388Z,795.07
2019-04-11T05:03:27.028Z,795.09
2019-04-11T05:03:40.261Z,794.99
2019-04-11T05:03:53.850Z,795.07
2019-04-11T05:04:04.739Z,795.11
2019-04-11T05:04:18.838Z,795.12
2019-04-11T05:04:29.702Z,795.08
2019-04-11T05:04:41.248Z,795.08
2019-04-11T05:04:51.999Z,795.07
2019-04-11T05:05:06.964Z,795.06
2019-04-11T05:05:17.691Z,795.03
2019-04-11T05:05:31.322Z,795.05
2019-04-11T05:05:42.201Z,795
2019-04-11T05:05:55.232Z,795.03
2019-04-11T05:06:05.443Z,795.04
2019-04-11T05:06:18.584Z,794.98
2019-04-11T05:06:28.994Z,795.01
2019-04-11T05:06:38.670Z,795.01
2019-04-11T05:06:55.859Z,794.98
2019-04-11T05:07:07.273Z,794.95
2019-04-11T05:07:17.180Z,795.02
2019-04-11T05:07:26.468Z,794.94
2019-04-11T05:07:49.701Z,794.89
2019-04-11T05:08:02.828Z,794.92
2019-04-11T05:08:14.346Z,794.89
2019-04-11T05:08:27.128Z,794.9
2019-04-11T05:08:35.623Z,794.91
2019-04-11T05:08:45.089Z,794.87
2019-04-11T05:08:53.544Z,794.86
2019-04-11T05:09:04.168Z,794.86
2019-04-11T05:09:15.500Z,794.86
2019-04-11T05:09:25.558Z,794.9
2019-04-11T05:09:33.965Z,794.88
2019-04-11T05:09:45.799Z,794.88
2019-04-11T05:09:54.488Z,794.9
2019-04-11T05:10:09.333Z,794.85
2019-04-11T05:10:17.951Z,794.9
2019-04-11T05:10:30.601Z,794.87
2019-04-11T05:10:41.298Z,794.89
2019-04-11T05:10:51.253Z,794.85
2019-04-11T05:11:01.636Z,794.9
2019-04-11T05:11:09.786Z,794.89
2019-04-11T05:11:17.989Z,794.9
2019-04-11T05:11:23.978Z,794.91
2019-04-11T05:11:33.924Z,794.86
2019-04-11T05:11:44.520Z,794.88
2019-04-11T05:11:56.005Z,794.85
2019-04-11T05:12:03.394Z,794.84
2019-04-11T05:12:11.931Z,794.81
2019-04-11T05:12:23.461Z,794.79
2019-04-11T05:12:32.022Z,794.78
2019-04-11T05:12:43.891Z,794.77
2019-04-11T05:12:51.250Z,794.75
2019-04-11T05:13:00.081Z,794.71
2019-04-11T05:13:11.883Z,794.76
2019-04-11T05:13:25.459Z,794.71
2019-04-11T05:13:36.678Z,794.68
2019-04-11T05:13:54.311Z,794.69
2019-04-11T05:14:07.187Z,794.66
2019-04-11T05:14:16.356Z,794.67
2019-04-11T05:14:29.525Z,794.63
2019-04-11T05:14:39.277Z,794.62
2019-04-11T05:14:47.635Z,794.64
2019-04-11T05:14:57.592Z,794.6
2019-04-11T05:15:06.314Z,794.6
2019-04-11T05:15:18.674Z,794.55
2019-04-11T05:15:29.055Z,794.53
2019-04-11T05:15:38.591Z,794.5
2019-04-11T05:15:48.951Z,794.51
2019-04-11T05:16:20.341Z,794.47
2019-04-11T05:16:24.655Z,794.48
2019-04-11T05:16:29.844Z,794.5
2019-04-11T05:16:38.426Z,794.48
2019-04-11T05:16:48.152Z,794.46
2019-04-11T05:16:58.076Z,794.5
2019-04-11T05:17:06.599Z,794.51
2019-04-11T05:17:19.206Z,794.52
2019-04-11T05:17:29.918Z,794.49
2019-04-11T05:17:44.341Z,794.48
2019-04-11T05:17:54.208Z,794.47
2019-04-11T05:18:04.060Z,794.5
2019-04-11T05:18:21.613Z,794.49
2019-04-11T05:18:29.889Z,794.49
2019-04-11T05:18:37.252Z,794.54
2019-04-11T05:18:44.683Z,794.53
2019-04-11T05:18:52.489Z,794.6
2019-04-11T05:19:01.670Z,794.58
2019-04-11T05:19:09.987Z,794.62
2019-04-11T05:19:16.915Z,794.58
2019-04-11T05:19:25.509Z,794.62
2019-04-11T05:19:35.068Z,794.59
2019-04-11T05:19:42.451Z,794.61
2019-04-11T05:19:50.832Z,794.63
2019-04-11T05:19:59.475Z,794.6
2019-04-11T05:20:06.872Z,794.58
2019-04-11T05:20:14.043Z,794.64
2019-04-11T05:20:21.824Z,794.65
2019-04-11T05:20:28.072Z,794.67
2019-04-11T05:20:35.066Z,794.69
2019-04-11T05:20:41.416Z,794.66
2019-04-11T05:20:49.042Z,794.7
2019-04-11T05:20:56.860Z,794.7
2019-04-11T05:21:06.800Z,794.71
2019-04-11T05:21:13.831Z,794.74
2019-04-11T05:21:19.907Z,794.74
2019-04-11T05:21:27.589Z,794.76
2019-04-11T05:21:35.136Z,794.78
2019-04-11T05:21:41.430Z,794.76
2019-04-11T05:21:49.812Z,794.8
2019-04-11T05:21:57.250Z,794.8
2019-04-11T05:22:03.984Z,794.81
2019-04-11T05:22:12.337Z,794.82
2019-04-11T05:22:19.008Z,794.82
2019-04-11T05:22:26.636Z,794.84
2019-04-11T05:22:33.111Z,794.84
2019-04-11T05:22:40.181Z,794.82
2019-04-11T05:22:47.130Z,794.85
2019-04-11T05:22:53.638Z,794.81
2019-04-11T05:23:01.767Z,794.8
2019-04-11T05:23:09.243Z,794.84
2019-04-11T05:23:15.418Z,794.83
2019-04-11T05:23:21.393Z,794.82
2019-04-11T05:23:31.809Z,794.83
2019-04-11T05:23:39.460Z,794.8
2019-04-11T05:23:45.916Z,794.82
2019-04-11T05:23:52.956Z,794.84
2019-04-11T05:24:01.907Z,794.8
2019-04-11T05:24:10.324Z,794.81
2019-04-11T05:24:18.680Z,794.79
2019-04-11T05:24:26.283Z,794.81
2019-04-11T05:24:32.694Z,794.78
2019-04-11T05:24:39.680Z,794.77
2019-04-11T05:24:47.496Z,794.8
2019-04-11T05:24:53.945Z,794.8
2019-04-11T05:25:08.456Z,794.82
2019-04-11T05:25:18.088Z,794.79
2019-04-11T05:25:25.129Z,794.81
2019-04-11T05:25:32.728Z,794.81
2019-04-11T05:25:39.049Z,794.75
2019-04-11T05:25:46.306Z,794.8
2019-04-11T05:25:52.726Z,794.82
2019-04-11T05:26:01.609Z,794.8
2019-04-11T05:26:08.872Z,794.77
2019-04-11T05:26:13.863Z,794.75
2019-04-11T05:26:21.529Z,794.78
2019-04-11T05:26:29.307Z,794.77
2019-04-11T05:26:37.221Z,794.78
2019-04-11T05:26:43.930Z,794.76
2019-04-11T05:26:53.055Z,794.75
2019-04-11T05:27:01.311Z,794.73
2019-04-11T05:27:10.228Z,794.75
2019-04-11T05:27:17.343Z,794.72
2019-04-11T05:27:25.079Z,794.74
2019-04-11T05:27:31.437Z,794.76
2019-04-11T05:27:39.745Z,794.73
2019-04-11T05:27:45.408Z,794.73
2019-04-11T05:27:51.419Z,794.72
2019-04-11T05:27:59.853Z,794.72
2019-04-11T05:28:07.933Z,794.72
2019-04-11T05:28:15.450Z,794.7
2019-04-11T05:28:21.415Z,794.67
2019-04-11T05:28:29.717Z,794.67
2019-04-11T05:28:37.368Z,794.64
2019-04-11T05:28:43.657Z,794.64
2019-04-11T05:28:50.697Z,794.58
2019-04-11T05:28:57.927Z,794.62
2019-04-11T05:29:04.680Z,794.63
2019-04-11T05:29:11.147Z,794.64
2019-04-11T05:29:19.199Z,794.64
2019-04-11T05:29:25.726Z,794.64
2019-04-11T05:29:33.297Z,794.61
2019-04-11T05:29:41.690Z,794.59
2019-04-11T05:29:48.032Z,794.58
2019-04-11T05:29:55.595Z,794.57
2019-04-11T05:30:02.829Z,794.53
2019-04-11T05:30:12.011Z,794.56
2019-04-11T05:30:20.235Z,794.58
2019-04-11T05:30:27.923Z,794.56